Time;durP1;ratioP1;P1;durP2;ratioP2;P2;SDS_P1;SDS_P2;PMS_P1;PMS_P2;Temp;Humidity;BMP_temperature;BMP_pressure;BME280_temperature;BME280_humidity;BME280_pressure;Samples;Min_cycle;Max_cycle;Signal;HPM_P1;HPM_P2
2023/09/09 00:00:54;;;;;;;22.05;18.75;;;;;;;16.21;73.18;100822.63;1749932;82;25607;-61
2023/09/09 00:03:25;;;;;;;22.35;19.50;;;;;;;16.18;73.31;100816.47;1749792;82;25639;-61
2023/09/09 00:05:51;;;;;;;22.98;19.60;;;;;;;16.17;73.32;100826.56;1750824;82;25576;-61
2023/09/09 00:08:19;;;;;;;23.15;19.67;;;;;;;16.15;73.28;100818.50;1750847;82;25403;-60
2023/09/09 00:10:47;;;;;;;21.17;18.92;;;;;;;16.14;73.25;100816.89;1750848;82;27545;-60
2023/09/09 00:13:15;;;;;;;21.80;19.42;;;;;;;16.11;73.35;100821.09;1750733;82;25549;-60
2023/09/09 00:15:43;;;;;;;21.42;18.75;;;;;;;16.09;73.37;100822.00;1750786;82;25465;-60
2023/09/09 00:18:09;;;;;;;23.07;19.48;;;;;;;16.09;73.37;100818.45;1750806;82;25541;-61
2023/09/09 00:20:40;;;;;;;22.90;20.50;;;;;;;16.07;73.52;100818.78;1750825;82;25422;-61
2023/09/09 00:23:08;;;;;;;22.15;19.82;;;;;;;16.05;73.76;100821.84;1750863;82;27546;-61
2023/09/09 00:25:41;;;;;;;22.13;19.90;;;;;;;16.00;73.43;100817.95;1750642;82;25791;-61
2023/09/09 00:28:13;;;;;;;22.82;20.43;;;;;;;15.96;73.76;100812.15;1750794;82;25376;-61
2023/09/09 00:30:42;;;;;;;24.12;19.17;;;;;;;15.91;73.81;100819.17;1750957;82;26025;-61
2023/09/09 00:33:09;;;;;;;25.25;20.55;;;;;;;15.88;73.84;100815.16;1751143;82;25573;-59
2023/09/09 00:35:40;;;;;;;25.23;22.50;;;;;;;15.87;74.07;100811.64;1750972;82;28168;-60
2023/09/09 00:38:10;;;;;;;28.38;23.47;;;;;;;15.89;74.26;100815.98;1750885;82;25430;-60
2023/09/09 00:40:37;;;;;;;32.40;24.87;;;;;;;15.87;74.36;100806.19;1751001;82;25545;-60
2023/09/09 00:43:04;;;;;;;30.97;24.82;;;;;;;15.87;74.50;100804.82;1750945;82;25572;-60
2023/09/09 00:45:31;;;;;;;39.08;29.85;;;;;;;15.87;74.50;100802.09;1750945;82;25616;-60
2023/09/09 00:47:58;;;;;;;29.80;25.82;;;;;;;15.83;74.69;100802.54;1750950;82;27486;-60
2023/09/09 00:50:25;;;;;;;28.57;25.10;;;;;;;15.86;74.44;100808.67;1750817;82;25606;-60
2023/09/09 00:52:53;;;;;;;29.35;24.10;;;;;;;15.85;74.48;100806.27;1750937;82;25526;-60
2023/09/09 00:55:19;;;;;;;25.65;22.40;;;;;;;15.83;74.59;100807.99;1750906;82;25481;-60
2023/09/09 00:57:45;;;;;;;24.52;22.05;;;;;;;15.82;74.57;100811.84;1723263;82;25642;-59
2023/09/09 01:00:14;;;;;;;26.77;23.90;;;;;;;15.81;74.74;100811.59;1751049;82;27535;-60
2023/09/09 01:02:43;;;;;;;28.15;25.05;;;;;;;15.82;74.71;100809.69;1751017;82;25552;-60
2023/09/09 01:05:12;;;;;;;27.60;24.67;;;;;;;15.79;74.67;100803.52;1751031;82;25414;-60
2023/09/09 01:07:49;;;;;;;25.88;22.48;;;;;;;15.78;74.61;100801.91;1751053;82;26383;-60
2023/09/09 01:10:20;;;;;;;29.80;25.40;;;;;;;15.77;74.69;100805.80;1750979;82;25384;-60
2023/09/09 01:12:47;;;;;;;28.62;23.83;;;;;;;15.73;74.57;100807.53;1750942;82;27549;-61
2023/09/09 01:15:13;;;;;;;27.45;22.98;;;;;;;15.66;74.40;100806.15;1750847;82;25421;-61
2023/09/09 01:17:41;;;;;;;28.85;25.75;;;;;;;15.62;74.40;100802.47;1750940;82;25640;-61
2023/09/09 01:20:15;;;;;;;28.95;25.27;;;;;;;15.58;74.64;100802.91;1750936;82;25618;-60
2023/09/09 01:22:48;;;;;;;31.85;26.25;;;;;;;15.56;74.58;100807.90;1751002;82;25400;-60
2023/09/09 01:25:14;;;;;;;34.80;28.12;;;;;;;15.55;74.46;100809.02;1751143;81;27485;-59
2023/09/09 01:27:42;;;;;;;30.30;26.93;;;;;;;15.53;74.49;100814.00;1754356;81;25433;-60
2023/09/09 01:30:11;;;;;;;30.95;25.25;;;;;;;15.52;74.62;100811.03;1754381;81;25622;-60
2023/09/09 01:32:38;;;;;;;24.67;22.07;;;;;;;15.51;74.71;100819.00;1754517;81;25538;-61
2023/09/09 01:35:07;;;;;;;39.60;32.28;;;;;;;15.49;74.80;100819.32;1754413;81;25153;-61
2023/09/09 01:37:35;;;;;;;23.85;21.35;;;;;;;15.48;74.87;100821.02;1754454;81;27528;-62
2023/09/09 01:40:08;;;;;;;27.95;23.20;;;;;;;15.43;74.74;100820.63;1754263;81;25419;-61
2023/09/09 01:42:33;;;;;;;30.45;23.05;;;;;;;15.38;74.53;100822.75;1754207;81;25489;-60
2023/09/09 01:44:59;;;;;;;27.87;21.93;;;;;;;15.36;74.97;100818.16;1754420;81;25477;-60
2023/09/09 01:47:25;;;;;;;27.95;22.52;;;;;;;15.36;75.11;100816.80;1754429;81;25623;-62
2023/09/09 01:49:51;;;;;;;27.98;24.05;;;;;;;15.34;75.31;100814.97;1754358;81;27541;-60
2023/09/09 01:52:17;;;;;;;28.85;22.82;;;;;;;15.32;75.30;100811.21;1754263;81;25458;-59
2023/09/09 01:54:43;;;;;;;23.60;21.10;;;;;;;15.30;75.32;100818.92;1729470;81;25402;-59
2023/09/09 01:57:09;;;;;;;25.45;19.90;;;;;;;15.28;75.41;100818.45;1754384;81;25561;-59
2023/09/09 01:59:35;;;;;;;22.87;18.92;;;;;;;15.24;75.41;100816.16;1754462;81;25453;-60
2023/09/09 02:02:02;;;;;;;24.35;21.82;;;;;;;15.22;75.24;100823.30;1754459;81;27631;-60
2023/09/09 02:04:29;;;;;;;26.37;21.80;;;;;;;15.18;75.47;100823.70;1754280;81;25435;-60
2023/09/09 02:06:57;;;;;;;28.17;21.17;;;;;;;15.18;75.59;100823.70;1754377;81;25486;-60
2023/09/09 02:09:23;;;;;;;22.32;20.02;;;;;;;15.17;75.58;100818.58;1754319;81;25596;-60
2023/09/09 02:11:49;;;;;;;23.02;20.23;;;;;;;15.15;75.73;100825.71;1754384;81;25616;-60
2023/09/09 02:14:17;;;;;;;22.15;19.75;;;;;;;15.15;75.63;100834.45;1754396;81;27479;-60
2023/09/09 02:16:44;;;;;;;24.57;19.70;;;;;;;15.14;75.56;100829.58;1754245;81;27285;-60
2023/09/09 02:19:10;;;;;;;24.32;19.52;;;;;;;15.13;75.65;100835.57;1754367;81;25140;-60
2023/09/09 02:21:36;;;;;;;21.37;19.07;;;;;;;15.09;75.58;100823.73;1754316;81;26108;-60
2023/09/09 02:24:04;;;;;;;23.90;20.68;;;;;;;15.09;75.45;100835.21;1754315;81;25555;-61
2023/09/09 02:26:31;;;;;;;22.90;19.65;;;;;;;15.08;75.76;100831.66;1754548;81;27490;-61
2023/09/09 02:28:57;;;;;;;24.30;19.45;;;;;;;15.06;75.58;100829.84;1754354;81;25701;-61
2023/09/09 02:31:23;;;;;;;23.10;20.43;;;;;;;15.03;75.41;100825.60;1754319;81;25506;-61
2023/09/09 02:33:49;;;;;;;21.85;19.50;;;;;;;15.02;75.50;100832.98;1754329;81;25655;-61
2023/09/09 02:36:15;;;;;;;25.92;19.65;;;;;;;15.00;75.47;100822.98;1754379;81;25398;-61
2023/09/09 02:38:41;;;;;;;24.50;20.32;;;;;;;14.98;75.43;100826.57;1754362;81;28089;-61
2023/09/09 02:41:07;;;;;;;23.40;19.42;;;;;;;14.96;75.36;100826.67;1754202;81;25530;-61
2023/09/09 02:43:33;;;;;;;22.62;19.10;;;;;;;14.91;75.37;100828.47;1754368;81;25628;-60
2023/09/09 02:46:00;;;;;;;26.55;19.65;;;;;;;14.85;74.97;100829.75;1754228;81;25522;-61
2023/09/09 02:48:26;;;;;;;24.52;18.87;;;;;;;14.83;75.08;100827.92;1754358;81;25551;-61
2023/09/09 02:50:53;;;;;;;23.05;18.62;;;;;;;14.81;75.20;100832.87;1754441;81;27423;-61
2023/09/09 02:53:19;;;;;;;20.60;18.23;;;;;;;14.77;74.90;100827.05;1754323;81;25616;-60
2023/09/09 02:55:46;;;;;;;21.90;18.32;;;;;;;14.72;75.02;100832.89;1754296;81;25404;-61
2023/09/09 02:58:13;;;;;;;20.65;18.45;;;;;;;14.67;74.95;100827.62;1754315;81;25572;-60
2023/09/09 03:00:41;;;;;;;23.35;19.07;;;;;;;14.62;74.82;100828.36;1754318;81;25402;-60
2023/09/09 03:03:07;;;;;;;24.90;19.82;;;;;;;14.58;74.94;100824.09;1754340;81;28032;-60
2023/09/09 03:05:37;;;;;;;22.10;19.70;;;;;;;14.54;75.21;100827.20;1754193;81;25394;-60
2023/09/09 03:08:05;;;;;;;28.85;19.30;;;;;;;14.48;75.39;100826.58;1754383;81;25550;-59
2023/09/09 03:10:32;;;;;;;26.85;19.27;;;;;;;14.45;75.13;100825.86;1754464;81;25635;-60
2023/09/09 03:13:00;;;;;;;26.00;19.37;;;;;;;14.41;75.19;100826.84;1754311;81;25563;-60
2023/09/09 03:15:26;;;;;;;23.02;19.52;;;;;;;14.36;75.36;100827.23;1754331;81;27561;-60
2023/09/09 03:17:52;;;;;;;25.15;20.80;;;;;;;14.33;75.29;100823.78;1754230;81;25749;-60
2023/09/09 03:20:18;;;;;;;22.58;19.60;;;;;;;14.30;75.56;100829.08;1754411;81;25414;-60
2023/09/09 03:22:44;;;;;;;23.87;20.65;;;;;;;14.26;75.67;100824.84;1754253;81;25596;-60
2023/09/09 03:25:10;;;;;;;22.80;20.40;;;;;;;14.23;75.90;100822.75;1754314;81;25414;-58
2023/09/09 03:27:37;;;;;;;24.37;19.80;;;;;;;14.18;75.73;100825.09;1753766;81;27483;-60
2023/09/09 03:30:09;;;;;;;25.05;20.23;;;;;;;14.17;75.86;100822.12;1753698;81;25397;-60
2023/09/09 03:32:35;;;;;;;22.62;20.15;;;;;;;14.15;75.91;100823.58;1753804;81;25540;-61
2023/09/09 03:35:01;;;;;;;21.90;19.50;;;;;;;14.13;75.94;100823.89;1753741;81;25518;-62
2023/09/09 03:37:27;;;;;;;24.57;20.02;;;;;;;14.11;75.96;100823.39;1753801;81;25556;-61
2023/09/09 03:39:53;;;;;;;22.65;19.85;;;;;;;14.08;76.12;100822.69;1753788;81;27535;-61
2023/09/09 03:42:19;;;;;;;25.52;19.87;;;;;;;14.07;76.21;100823.01;1753705;81;25562;-60
2023/09/09 03:44:45;;;;;;;29.00;21.25;;;;;;;14.05;76.22;100816.52;1753708;81;25639;-60
2023/09/09 03:47:11;;;;;;;29.32;22.75;;;;;;;14.03;76.40;100822.84;1753707;81;25615;-60
2023/09/09 03:49:37;;;;;;;23.02;20.52;;;;;;;14.01;76.61;100822.34;1753822;81;25381;-60
2023/09/09 03:52:06;;;;;;;27.05;21.82;;;;;;;13.98;76.57;100825.73;1753747;81;27600;-60
2023/09/09 03:54:32;;;;;;;25.65;20.65;;;;;;;13.98;76.69;100817.56;1753666;81;25394;-60
2023/09/09 03:56:58;;;;;;;22.73;20.02;;;;;;;13.96;76.79;100818.42;1753737;81;25642;-60
2023/09/09 03:59:29;;;;;;;26.30;20.43;;;;;;;13.92;76.65;100818.27;1753735;81;25648;-59
2023/09/09 04:01:52;;;;;;;30.23;20.80;;;;;;;13.92;76.77;100821.55;1753071;81;25418;-60
2023/09/09 04:04:19;;;;;;;24.80;20.75;;;;;;;13.91;76.89;100811.78;1753766;81;27466;-60
2023/09/09 04:06:45;;;;;;;22.77;20.43;;;;;;;13.90;77.21;100814.27;1753813;81;26029;-60
2023/09/09 04:09:20;;;;;;;23.32;20.60;;;;;;;13.88;77.06;100816.52;1753936;81;25628;-60
2023/09/09 04:11:39;;;;;;;23.92;19.60;;;;;;;13.88;77.21;100821.39;1752082;81;25619;-59
2023/09/09 04:14:05;;;;;;;23.90;21.37;;;;;;;13.87;77.37;100818.98;1753896;81;25411;-59
2023/09/09 04:16:31;;;;;;;24.50;20.77;;;;;;;13.86;77.41;100822.27;1753933;81;27459;-59
2023/09/09 04:18:57;;;;;;;23.60;21.07;;;;;;;13.87;77.69;100827.14;1753846;81;25387;-59
2023/09/09 04:21:23;;;;;;;23.92;20.32;;;;;;;13.85;77.57;100825.31;1753902;81;25638;-59
2023/09/09 04:23:49;;;;;;;23.80;20.70;;;;;;;13.83;77.84;100826.98;1753836;81;25567;-59
2023/09/09 04:26:16;;;;;;;23.10;20.50;;;;;;;13.83;77.79;100827.77;1753426;81;25649;-60
2023/09/09 04:28:42;;;;;;;25.43;20.82;;;;;;;13.83;78.01;100830.49;1751026;82;28037;-60
2023/09/09 04:31:10;;;;;;;27.27;20.70;;;;;;;13.86;78.02;100830.97;1750893;82;25851;-60
2023/09/09 04:33:36;;;;;;;27.60;20.05;;;;;;;13.86;78.00;100837.23;1750837;82;25551;-60
2023/09/09 04:36:04;;;;;;;22.48;19.05;;;;;;;13.88;78.15;100830.91;1750997;82;26087;-60
2023/09/09 04:38:30;;;;;;;25.75;20.48;;;;;;;13.88;77.89;100830.11;1750992;82;25567;-60
2023/09/09 04:40:56;;;;;;;24.32;20.45;;;;;;;13.87;77.85;100831.22;1750961;82;28142;-60
2023/09/09 04:43:23;;;;;;;25.62;20.40;;;;;;;13.86;77.90;100833.15;1750858;81;25593;-60
2023/09/09 04:45:50;;;;;;;22.60;19.20;;;;;;;13.87;77.98;100835.30;1750940;82;25442;-60
2023/09/09 04:48:16;;;;;;;23.57;20.52;;;;;;;13.87;78.00;100832.58;1750884;82;26089;-58
2023/09/09 04:50:42;;;;;;;26.23;20.50;;;;;;;13.87;77.99;100833.94;1750932;82;25541;-59
2023/09/09 04:53:08;;;;;;;24.45;19.62;;;;;;;13.86;78.25;100839.12;1750917;82;25943;-59
2023/09/09 04:55:34;;;;;;;23.60;19.70;;;;;;;13.86;78.36;100843.20;1750847;81;25570;-57
2023/09/09 04:58:01;;;;;;;32.93;24.43;;;;;;;13.90;78.50;100852.34;1750939;82;25385;-58
2023/09/09 05:00:27;;;;;;;32.58;26.85;;;;;;;13.93;78.88;100857.95;1750916;82;26069;-59
2023/09/09 05:02:53;;;;;;;25.02;21.45;;;;;;;13.96;78.94;100851.88;1750918;82;25525;-58
2023/09/09 05:05:19;;;;;;;21.95;19.55;;;;;;;14.00;79.03;100853.40;1750896;82;27928;-59
2023/09/09 05:07:46;;;;;;;22.30;19.35;;;;;;;14.04;79.00;100852.99;1750864;82;25611;-59
2023/09/09 05:10:13;;;;;;;21.87;19.57;;;;;;;14.07;79.03;100850.20;1750906;82;25544;-59
2023/09/09 05:12:40;;;;;;;21.77;18.87;;;;;;;14.11;79.34;100856.03;1750858;82;25580;-58
2023/09/09 05:15:10;;;;;;;27.67;19.10;;;;;;;14.18;79.56;100856.38;1750931;82;25544;-59
2023/09/09 05:17:36;;;;;;;;;;;;;;;14.24;79.67;100856.22;1753607;82;27443;-59
2023/09/09 05:20:03;;;;;;;24.07;19.62;;;;;;;14.29;79.91;100848.69;1750854;82;25667;-60
2023/09/09 05:22:30;;;;;;;23.27;19.92;;;;;;;14.33;79.44;100844.77;1750953;82;25392;-59
2023/09/09 05:24:56;;;;;;;26.07;20.70;;;;;;;14.38;79.50;100846.75;1721907;82;26168;-59
2023/09/09 05:27:22;;;;;;;22.40;19.02;;;;;;;14.45;79.74;100847.63;1750866;82;25594;-59
2023/09/09 05:29:48;;;;;;;25.52;19.62;;;;;;;14.53;79.92;100850.13;1750889;82;27494;-59
2023/09/09 05:32:17;;;;;;;21.40;19.20;;;;;;;14.62;79.96;100848.20;1750842;82;25661;-58
2023/09/09 05:34:44;;;;;;;21.90;19.50;;;;;;;14.69;80.03;100853.98;1750883;82;25455;-59
2023/09/09 05:37:10;;;;;;;22.52;18.92;;;;;;;14.78;79.92;100851.78;1750848;82;25570;-60
2023/09/09 05:39:36;;;;;;;21.62;19.27;;;;;;;14.88;80.41;100860.42;1723186;82;25432;-60
2023/09/09 05:42:06;;;;;;;24.45;19.82;;;;;;;14.99;80.58;100856.00;1750884;82;27517;-59
2023/09/09 05:44:36;;;;;;;25.45;20.82;;;;;;;15.12;80.64;100853.63;1750877;82;25802;-60
2023/09/09 05:47:08;;;;;;;22.85;19.42;;;;;;;15.23;80.65;100854.06;1750885;81;25538;-60
2023/09/09 05:49:34;;;;;;;22.60;19.50;;;;;;;15.34;80.30;100861.30;1750953;82;25568;-60
2023/09/09 05:52:00;;;;;;;25.37;20.17;;;;;;;15.44;80.33;100850.03;1750972;82;25619;-59
2023/09/09 05:54:26;;;;;;;23.12;20.05;;;;;;;15.57;80.63;100854.47;1750935;82;27455;-60
2023/09/09 05:56:54;;;;;;;23.25;20.12;;;;;;;15.71;80.62;100850.13;1750846;82;25627;-60
2023/09/09 05:59:21;;;;;;;22.77;20.50;;;;;;;15.84;80.75;100853.22;1750903;82;25536;-60
2023/09/09 06:01:47;;;;;;;25.52;20.32;;;;;;;16.00;80.87;100856.14;1750846;82;25390;-60
2023/09/09 06:04:15;;;;;;;27.20;22.55;;;;;;;16.16;81.13;100859.10;1750867;82;25604;-60
2023/09/09 06:06:48;;;;;;;22.93;20.50;;;;;;;16.34;81.32;100855.64;1750456;82;29618;-60
2023/09/09 06:09:16;;;;;;;22.67;20.37;;;;;;;16.54;81.50;100856.77;1750827;82;25221;-60
2023/09/09 06:11:43;;;;;;;25.85;22.10;;;;;;;16.77;81.55;100855.83;1750845;82;25465;-60
2023/09/09 06:14:11;;;;;;;26.55;20.75;;;;;;;17.00;81.80;100858.18;1750865;82;25833;-60
2023/09/09 06:16:38;;;;;;;25.00;21.55;;;;;;;17.23;81.61;100859.94;1750918;82;25396;-59
2023/09/09 06:19:06;;;;;;;25.37;21.93;;;;;;;17.45;81.31;100872.38;1751106;82;27507;-60
2023/09/09 06:21:34;;;;;;;32.65;23.30;;;;;;;17.65;80.93;100872.00;1750815;81;25585;-60
2023/09/09 06:24:00;;;;;;;33.58;25.10;;;;;;;17.85;80.85;100875.75;1750833;82;25419;-60
2023/09/09 06:26:33;;;;;;;33.50;25.43;;;;;;;18.05;80.52;100874.63;1750755;82;26050;-60
2023/09/09 06:28:58;;;;;;;28.20;24.23;;;;;;;18.21;79.89;100876.84;1753662;81;25463;-59
2023/09/09 06:31:26;;;;;;;27.22;23.38;;;;;;;18.41;79.72;100881.14;1753884;81;28179;-61
2023/09/09 06:33:53;;;;;;;30.25;24.27;;;;;;;18.62;79.81;100894.63;1753751;81;25583;-60
2023/09/09 06:36:22;;;;;;;25.77;22.82;;;;;;;18.85;79.53;100892.17;1753926;81;25589;-57
2023/09/09 06:38:50;;;;;;;23.45;20.40;;;;;;;19.08;78.88;100892.95;1753908;81;25532;-57
2023/09/09 06:41:17;;;;;;;25.37;20.95;;;;;;;19.27;78.56;100888.14;1753848;81;25544;-57
2023/09/09 06:43:44;;;;;;;28.38;21.05;;;;;;;19.52;78.75;100898.36;1753829;81;28138;-57
2023/09/09 06:46:11;;;;;;;23.75;21.17;;;;;;;19.78;78.49;100892.33;1726701;81;25503;-54
2023/09/09 06:48:37;;;;;;;24.07;21.30;;;;;;;20.09;77.62;100896.14;1753780;81;25395;-53
2023/09/09 06:51:03;;;;;;;23.60;20.48;;;;;;;20.35;77.24;100885.92;1753696;81;27806;-53
2023/09/09 06:53:29;;;;;;;23.10;19.52;;;;;;;20.58;76.60;100883.22;1753818;81;25530;-56
2023/09/09 06:55:56;;;;;;;24.87;20.88;;;;;;;20.84;75.92;100889.45;1753798;81;27472;-55
2023/09/09 06:58:23;;;;;;;22.75;20.32;;;;;;;21.07;75.07;100876.30;1753751;81;25473;-56
2023/09/09 07:00:54;;;;;;;22.98;19.30;;;;;;;21.33;74.62;100878.89;1753754;81;25406;-57
2023/09/09 07:03:22;;;;;;;23.55;20.27;;;;;;;21.59;73.97;100878.95;1753775;81;25615;-54
2023/09/09 07:05:50;;;;;;;23.02;18.57;;;;;;;21.83;73.17;100877.73;1753858;81;25560;-56
2023/09/09 07:08:17;;;;;;;20.05;17.95;;;;;;;22.06;72.19;100883.73;1753836;81;27462;-56
2023/09/09 07:10:54;;;;;;;21.50;17.77;;;;;;;22.31;71.63;100882.72;1753648;81;25755;-56
2023/09/09 07:13:22;;;;;;;21.75;18.05;;;;;;;22.54;70.96;100874.90;1753766;81;25484;-56
2023/09/09 07:15:53;;;;;;;24.80;20.15;;;;;;;22.77;69.75;100873.98;1753893;81;25475;-56
2023/09/09 07:18:22;;;;;;;22.22;18.95;;;;;;;22.93;68.95;100872.58;1753777;81;25521;-55
2023/09/09 07:20:49;;;;;;;19.37;16.17;;;;;;;23.12;68.22;100866.08;1753938;81;27484;-53
2023/09/09 07:23:18;;;;;;;17.48;15.65;;;;;;;23.30;67.77;100868.18;1753731;81;25694;-56
2023/09/09 07:25:49;;;;;;;21.55;16.27;;;;;;;23.47;66.86;100871.66;1753913;81;25367;-55
2023/09/09 07:28:15;;;;;;;18.40;15.32;;;;;;;23.63;66.75;100867.25;1753999;81;25649;-56
2023/09/09 07:30:44;;;;;;;16.82;14.53;;;;;;;23.77;65.96;100860.20;1754349;81;25615;-59
2023/09/09 07:33:12;;;;;;;16.32;14.33;;;;;;;23.90;65.38;100858.73;1754677;81;28122;-53
2023/09/09 07:35:38;;;;;;;19.20;14.40;;;;;;;24.02;64.75;100858.42;1754547;81;26058;-56
2023/09/09 07:38:05;;;;;;;19.12;15.30;;;;;;;24.18;64.48;100853.16;1754437;81;25541;-61
2023/09/09 07:41:00;;;;;;;20.08;17.27;;;;;;;24.34;63.76;100859.73;1740477;81;25136;-56
2023/09/09 07:43:26;;;;;;;275.48;102.90;;;;;;;24.58;63.56;100867.92;1740003;82;25461;-56
2023/09/09 07:45:53;;;;;;;20.05;14.23;;;;;;;24.79;62.96;100860.25;1740085;82;27462;-55
2023/09/09 07:48:20;;;;;;;58.95;28.20;;;;;;;25.02;62.53;100862.66;1696383;84;25719;-57
2023/09/09 07:50:54;;;;;;;287.02;126.67;;;;;;;25.27;62.09;100866.07;1739671;82;25484;-53
2023/09/09 07:53:23;;;;;;;40.08;22.55;;;;;;;25.50;61.77;100861.48;1739574;82;26076;-55
2023/09/09 07:55:52;;;;;;;13.43;11.90;;;;;;;25.74;60.80;100864.01;1739872;82;25574;-55
2023/09/09 07:58:19;;;;;;;319.90;142.05;;;;;;;25.96;59.98;100864.77;1739720;82;28353;-51
2023/09/09 08:00:47;;;;;;;74.67;34.23;;;;;;;26.21;59.74;100867.45;1739533;82;25477;-52
2023/09/09 08:03:15;;;;;;;19.42;13.53;;;;;;;26.48;59.45;100866.94;1739682;82;25571;-54
2023/09/09 08:05:41;;;;;;;14.80;11.80;;;;;;;26.84;58.82;100869.52;1739757;82;25471;-53
2023/09/09 08:08:08;;;;;;;76.20;33.80;;;;;;;27.18;57.35;100871.64;1739603;82;25553;-53
2023/09/09 08:10:35;;;;;;;15.58;12.20;;;;;;;27.45;56.12;100863.50;1739724;82;28076;-51
2023/09/09 08:13:01;;;;;;;40.58;20.97;;;;;;;27.66;55.46;100868.05;1739583;82;25415;-55
2023/09/09 08:15:29;;;;;;;13.50;10.95;;;;;;;27.90;54.32;100871.75;1739721;82;25370;-53
2023/09/09 08:17:57;;;;;;;14.35;9.38;;;;;;;28.13;53.18;100872.51;1738986;82;25385;-53
2023/09/09 08:20:23;;;;;;;16.35;11.97;;;;;;;28.30;52.50;100874.88;1739650;82;25553;-53
2023/09/09 08:22:50;;;;;;;34.60;17.85;;;;;;;28.41;52.10;100869.78;1739583;82;28295;-53
2023/09/09 08:25:16;;;;;;;20.27;13.35;;;;;;;28.53;51.65;100860.08;1739534;82;25409;-55
2023/09/09 08:27:42;;;;;;;17.17;11.68;;;;;;;28.66;51.16;100869.46;1739553;82;25565;-55
2023/09/09 08:30:10;;;;;;;35.75;13.18;;;;;;;28.74;50.23;100872.91;1739516;82;25516;-58
2023/09/09 08:32:36;;;;;;;77.47;69.67;;;;;;;28.73;50.40;100867.95;1739868;82;25591;-54
2023/09/09 08:35:05;;;;;;;15.32;13.00;;;;;;;28.76;50.15;100868.52;1739632;82;27586;-52
2023/09/09 08:37:32;;;;;;;13.00;11.40;;;;;;;28.94;49.95;100874.41;1739472;82;25458;-57
2023/09/09 08:39:58;;;;;;;17.40;10.88;;;;;;;29.14;49.54;100868.92;1756725;80;25451;-58
2023/09/09 08:42:52;;;;;;;10.72;9.00;;;;;;;29.36;49.31;100872.94;1772286;81;25630;-58
2023/09/09 08:45:44;;;;;;;10.00;8.45;;;;;;;29.58;48.54;100871.17;1772370;81;25448;-58
2023/09/09 08:48:16;;;;;;;9.90;8.00;;;;;;;29.78;48.01;100867.82;1772345;80;27393;-58
2023/09/09 08:50:45;;;;;;;11.00;8.33;;;;;;;29.89;47.51;100860.63;1771860;81;25832;-56
2023/09/09 08:53:13;;;;;;;13.08;8.00;;;;;;;29.97;47.08;100862.06;1772327;81;25362;-54
2023/09/09 08:55:41;;;;;;;13.22;8.93;;;;;;;30.11;46.85;100862.99;1772531;81;25537;-53
2023/09/09 08:58:09;;;;;;;8.43;7.47;;;;;;;30.17;47.23;100866.83;1772456;81;25438;-52
2023/09/09 09:00:37;;;;;;;8.95;7.87;;;;;;;30.17;46.40;100861.25;1772323;81;27460;-55
2023/09/09 09:03:05;;;;;;;13.93;7.58;;;;;;;30.14;46.98;100865.70;1772299;81;25613;-53
2023/09/09 09:05:33;;;;;;;11.93;7.13;;;;;;;29.97;48.28;100869.66;1771957;81;25670;-56
2023/09/09 09:08:01;;;;;;;12.47;7.08;;;;;;;29.81;48.13;100873.13;1771092;81;25627;-55
2023/09/09 09:10:28;;;;;;;7.78;7.08;;;;;;;29.93;46.11;100872.52;1771629;81;25475;-51
2023/09/09 09:12:54;;;;;;;11.80;7.70;;;;;;;30.02;45.49;100869.15;1770815;81;27429;-50
2023/09/09 09:15:21;;;;;;;8.80;7.10;;;;;;;30.03;45.88;100871.32;1770730;81;25795;-53
2023/09/09 09:17:48;;;;;;;8.70;7.53;;;;;;;30.05;46.82;100875.23;1770953;81;25757;-55
2023/09/09 09:20:30;;;;;;;9.68;8.45;;;;;;;30.10;47.76;100874.73;1770850;81;25677;-53
2023/09/09 09:23:00;;;;;;;10.78;7.97;;;;;;;30.15;47.72;100871.47;1772349;81;25629;-53
2023/09/09 09:25:29;;;;;;;11.80;8.13;;;;;;;30.40;46.10;100870.16;1772306;81;27476;-52
2023/09/09 09:27:58;;;;;;;9.45;7.97;;;;;;;30.60;45.58;100870.71;1772295;81;25767;-55
2023/09/09 09:30:28;;;;;;;10.05;7.80;;;;;;;30.75;45.35;100868.38;1772241;81;25457;-54
2023/09/09 09:32:56;;;;;;;9.90;7.97;;;;;;;30.86;45.89;100864.73;1772328;81;25557;-55
2023/09/09 09:35:29;;;;;;;9.78;7.70;;;;;;;30.86;45.89;100864.73;1772411;81;25457;-53
2023/09/09 09:38:02;;;;;;;8.50;7.60;;;;;;;30.93;45.31;100856.17;1772293;80;27455;-55
2023/09/09 09:40:30;;;;;;;7.97;7.12;;;;;;;30.90;44.76;100864.03;1773814;80;25821;-55
2023/09/09 09:42:57;;;;;;;9.90;7.45;;;;;;;30.87;44.63;100857.32;1775406;80;25372;-56
2023/09/09 09:45:29;;;;;;;9.35;7.17;;;;;;;30.84;45.50;100858.19;1775352;80;26188;-54
2023/09/09 09:47:58;;;;;;;9.95;7.37;;;;;;;30.83;45.26;100863.58;1775311;80;25433;-54
2023/09/09 09:50:32;;;;;;;8.60;7.55;;;;;;;30.97;44.94;100867.29;1775393;80;27489;-55
2023/09/09 09:53:05;;;;;;;9.48;6.42;;;;;;;31.11;44.87;100872.53;1775213;80;25624;-55
2023/09/09 09:55:34;;;;;;;7.20;6.50;;;;;;;31.13;44.42;100864.50;1775278;80;25413;-55
2023/09/09 09:58:06;;;;;;;7.78;6.70;;;;;;;31.15;44.13;100859.25;1775237;80;25570;-56
2023/09/09 10:00:34;;;;;;;10.23;6.35;;;;;;;30.98;44.16;100859.88;1775269;80;25624;-55
2023/09/09 10:03:02;;;;;;;7.33;6.45;;;;;;;31.03;43.90;100864.16;1775210;80;28097;-56
2023/09/09 10:05:30;;;;;;;8.55;7.30;;;;;;;31.21;43.90;100865.89;1775296;80;25442;-55
2023/09/09 10:08:10;;;;;;;6.78;5.90;;;;;;;31.37;43.66;100862.28;1775255;80;25400;-56
2023/09/09 10:10:40;;;;;;;8.55;5.60;;;;;;;31.63;43.27;100855.43;1775167;80;25556;-56
2023/09/09 10:13:21;;;;;;;7.12;5.65;;;;;;;31.93;42.13;100856.98;1775153;80;25616;-54
2023/09/09 10:15:49;;;;;;;9.85;6.72;;;;;;;32.31;42.03;100866.09;1775275;80;27435;-54
2023/09/09 10:18:16;;;;;;;8.98;6.62;;;;;;;32.79;42.14;100866.86;1775176;80;25568;-57
2023/09/09 10:20:43;;;;;;;11.12;6.30;;;;;;;33.17;41.77;100863.22;1775552;80;25367;-56
2023/09/09 10:23:11;;;;;;;8.28;7.10;;;;;;;33.45;40.79;100865.67;1775200;80;25619;-57
2023/09/09 10:25:42;;;;;;;7.83;6.22;;;;;;;33.67;40.86;100865.69;1775408;80;25385;-57
2023/09/09 10:28:09;;;;;;;7.42;6.72;;;;;;;33.85;40.08;100858.04;1775041;80;28093;-55
2023/09/09 10:30:36;;;;;;;10.50;7.30;;;;;;;33.90;40.04;100857.45;1751171;80;25575;-57
2023/09/09 10:33:09;;;;;;;7.80;6.47;;;;;;;33.89;38.63;100854.50;1775254;80;25372;-57
2023/09/09 10:35:36;;;;;;;9.45;6.67;;;;;;;34.03;38.91;100853.17;1774426;80;25431;-57
2023/09/09 10:38:04;;;;;;;10.95;7.75;;;;;;;34.06;39.19;100856.47;1775262;80;25474;-55
2023/09/09 10:40:32;;;;;;;10.50;6.22;;;;;;;34.21;38.54;100864.53;1775114;80;27549;-56
2023/09/09 10:42:58;;;;;;;9.75;6.47;;;;;;;34.31;38.19;100861.77;1775169;80;25596;-53
2023/09/09 11:28:24;;;;;;;7.20;5.97;;;;;;;35.81;33.42;100846.31;1868320;76;25484;-56
2023/09/09 11:30:50;;;;;;;8.75;6.30;;;;;;;35.97;33.47;100845.81;1824501;77;25350;-55
2023/09/09 11:33:25;;;;;;;7.05;5.83;;;;;;;36.09;33.33;100835.75;1824477;78;27571;-55
2023/09/09 11:35:51;;;;;;;10.72;6.53;;;;;;;36.25;32.54;100841.69;1824384;78;25790;-52
2023/09/09 11:38:21;;;;;;;7.53;5.92;;;;;;;36.41;31.83;100843.97;1824492;78;25624;-54
2023/09/09 11:40:47;;;;;;;10.70;5.78;;;;;;;36.53;31.93;100838.73;1823382;78;25727;-54
2023/09/09 11:43:16;;;;;;;6.33;5.60;;;;;;;36.69;31.57;100838.18;1824508;78;25624;-51
2023/09/09 11:45:43;;;;;;;9.93;6.53;;;;;;;36.81;31.54;100837.99;1824434;78;27452;-51
2023/09/09 11:48:13;;;;;;;8.20;6.17;;;;;;;36.91;31.43;100831.64;1824320;78;25423;-52
2023/09/09 11:50:45;;;;;;;10.72;6.40;;;;;;;36.94;31.37;100827.09;1824417;78;25615;-51
2023/09/09 11:53:13;;;;;;;10.50;6.05;;;;;;;36.93;31.73;100835.39;1824435;78;25603;-51
2023/09/09 11:55:40;;;;;;;6.87;6.08;;;;;;;36.76;31.56;100838.65;1824470;78;25561;-53
2023/09/09 11:58:06;;;;;;;8.00;6.37;;;;;;;36.69;31.24;100827.69;1824414;78;27559;-55